Time;durP1;ratioP1;P1;durP2;ratioP2;P2;SDS_P1;SDS_P2;PMS_P1;PMS_P2;Temp;Humidity;BMP_temperature;BMP_pressure;BME280_temperature;BME280_humidity;BME280_pressure;Samples;Min_cycle;Max_cycle;Signal;HPM_P1;HPM_P2
2022/05/20 00:01:03;;;;;;;34.10;24.23;;;;;;;;;;5134818;27;20499;-69
2022/05/20 00:03:32;;;;;;;28.90;23.43;;;;;;;;;;5135265;27;20438;-69
2022/05/20 00:05:59;;;;;;;34.20;25.00;;;;;;;;;;5134934;27;21031;-69
2022/05/20 00:08:27;;;;;;;31.90;25.80;;;;;;;;;;5135115;27;20442;-69
2022/05/20 00:10:55;;;;;;;34.37;24.60;;;;;;;;;;5135502;27;20462;-69
2022/05/20 00:13:22;;;;;;;32.30;25.60;;;;;;;;;;5134802;27;20923;-69
2022/05/20 00:15:51;;;;;;;32.90;25.30;;;;;;;;;;5134543;27;20535;-69
2022/05/20 00:18:19;;;;;;;36.83;27.17;;;;;;;;;;5134875;27;20439;-69
2022/05/20 00:20:46;;;;;;;35.87;24.60;;;;;;;;;;5135179;27;20533;-69
2022/05/20 00:23:14;;;;;;;31.63;25.20;;;;;;;;;;5135097;27;20435;-69
2022/05/20 00:25:47;;;;;;;30.83;25.10;;;;;;;;;;5134963;27;20996;-69
2022/05/20 00:28:14;;;;;;;31.90;27.27;;;;;;;;;;5134820;27;20428;-69
2022/05/20 00:30:42;;;;;;;33.50;27.17;;;;;;;;;;5134751;27;20448;-69
2022/05/20 00:33:12;;;;;;;35.47;26.07;;;;;;;;;;5134273;27;20497;-69
2022/05/20 00:35:39;;;;;;;35.10;28.83;;;;;;;;;;5134480;27;20974;-69
2022/05/20 00:38:07;;;;;;;38.03;28.13;;;;;;;;;;5134062;27;20915;-69
2022/05/20 00:40:35;;;;;;;31.97;28.20;;;;;;;;;;5135030;27;20446;-69
2022/05/20 00:43:13;;;;;;;35.67;28.10;;;;;;;;;;5134672;27;20470;-69
2022/05/20 00:45:41;;;;;;;40.17;29.23;;;;;;;;;;5134068;28;20438;-69
2022/05/20 00:48:08;;;;;;;37.07;28.70;;;;;;;;;;5134392;28;20452;-69
2022/05/20 00:50:39;;;;;;;37.03;27.90;;;;;;;;;;5134517;28;20456;-71
2022/05/20 00:53:07;;;;;;;41.50;29.00;;;;;;;;;;5134346;27;20964;-69
2022/05/20 00:55:34;;;;;;;38.83;27.83;;;;;;;;;;5134841;28;20802;-69
2022/05/20 00:58:04;;;;;;;37.63;28.63;;;;;;;;;;5134031;28;20445;-69
2022/05/20 01:00:33;;;;;;;41.87;30.30;;;;;;;;;;5134208;28;20449;-69
2022/05/20 01:03:02;;;;;;;38.30;29.57;;;;;;;;;;5133960;28;20488;-69
2022/05/20 01:05:31;;;;;;;38.10;29.53;;;;;;;;;;5134575;28;20450;-69
2022/05/20 01:08:00;;;;;;;37.53;28.57;;;;;;;;;;5134195;28;20521;-69
2022/05/20 01:10:28;;;;;;;38.83;30.07;;;;;;;;;;5134366;28;20472;-69
2022/05/20 01:12:55;;;;;;;45.20;31.37;;;;;;;;;;5134328;28;20446;-69
2022/05/20 01:15:22;;;;;;;39.00;30.33;;;;;;;;;;5134303;28;20442;-69
2022/05/20 01:17:50;;;;;;;42.07;31.20;;;;;;;;;;5134419;28;20810;-69
2022/05/20 01:20:19;;;;;;;40.63;31.80;;;;;;;;;;5134211;28;20438;-69
2022/05/20 01:23:01;;;;;;;37.97;30.03;;;;;;;;;;5134400;28;20433;-69
2022/05/20 01:25:29;;;;;;;41.03;30.40;;;;;;;;;;5134577;28;20438;-69
2022/05/20 01:27:56;;;;;;;41.23;32.67;;;;;;;;;;5133720;28;21021;-69
2022/05/20 01:30:25;;;;;;;41.37;32.90;;;;;;;;;;5134147;28;20443;-69
2022/05/20 01:32:53;;;;;;;43.30;33.80;;;;;;;;;;5133631;28;20527;-69
2022/05/20 01:35:23;;;;;;;54.27;33.83;;;;;;;;;;5134267;28;20541;-69
2022/05/20 01:37:51;;;;;;;46.10;33.93;;;;;;;;;;5134184;28;20537;-69
2022/05/20 01:40:18;;;;;;;44.57;33.00;;;;;;;;;;5133726;28;20447;-69
2022/05/20 01:42:50;;;;;;;50.23;35.60;;;;;;;;;;5133684;28;20569;-70
2022/05/20 01:45:19;;;;;;;53.63;34.60;;;;;;;;;;5133730;28;20516;-69
2022/05/20 01:47:51;;;;;;;41.67;32.57;;;;;;;;;;5133828;28;20484;-69
2022/05/20 01:50:21;;;;;;;46.17;33.30;;;;;;;;;;5134760;27;20442;-69
2022/05/20 01:52:49;;;;;;;43.33;31.63;;;;;;;;;;5137756;27;20468;-69
2022/05/20 01:55:21;;;;;;;45.10;31.83;;;;;;;;;;5137588;27;20453;-69
2022/05/20 01:57:51;;;;;;;42.90;32.57;;;;;;;;;;5137200;27;20439;-67
2022/05/20 02:00:20;;;;;;;53.33;32.23;;;;;;;;;;5137862;27;20445;-69
2022/05/20 02:02:50;;;;;;;41.37;29.37;;;;;;;;;;5137428;27;20534;-69
2022/05/20 02:05:22;;;;;;;43.60;30.60;;;;;;;;;;5137562;27;20506;-70
2022/05/20 02:07:52;;;;;;;36.80;30.67;;;;;;;;;;5137205;27;20986;-69
2022/05/20 02:10:24;;;;;;;41.90;29.53;;;;;;;;;;5137306;27;20434;-69
2022/05/20 02:12:52;;;;;;;37.13;29.17;;;;;;;;;;5136842;27;20457;-68
2022/05/20 02:15:23;;;;;;;45.43;30.87;;;;;;;;;;5137263;27;20460;-69
2022/05/20 02:17:52;;;;;;;43.03;31.70;;;;;;;;;;5137416;27;20438;-68
2022/05/20 02:20:22;;;;;;;44.53;30.87;;;;;;;;;;5137134;27;20456;-69
2022/05/20 02:22:52;;;;;;;39.97;30.27;;;;;;;;;;5137310;27;20518;-68
2022/05/20 02:25:23;;;;;;;38.27;30.20;;;;;;;;;;5137089;27;20518;-68
2022/05/20 02:27:52;;;;;;;46.17;33.07;;;;;;;;;;5136927;27;20494;-69
2022/05/20 02:30:20;;;;;;;39.53;31.50;;;;;;;;;;5136950;27;20443;-68
2022/05/20 02:32:49;;;;;;;42.83;30.53;;;;;;;;;;5136507;27;20449;-70
2022/05/20 02:35:16;;;;;;;40.30;29.43;;;;;;;;;;5136966;27;20436;-68
2022/05/20 02:37:43;;;;;;;42.40;32.50;;;;;;;;;;5137081;27;20465;-68
2022/05/20 02:40:12;;;;;;;44.33;30.90;;;;;;;;;;5137210;27;20874;-68
2022/05/20 02:42:40;;;;;;;44.00;31.63;;;;;;;;;;5136371;27;20572;-69
2022/05/20 02:45:08;;;;;;;48.50;32.33;;;;;;;;;;5136333;27;20438;-68
2022/05/20 02:47:36;;;;;;;44.90;33.30;;;;;;;;;;5136318;27;20565;-68
2022/05/20 02:50:04;;;;;;;48.10;34.30;;;;;;;;;;5136556;27;20526;-68
2022/05/20 02:52:31;;;;;;;41.87;32.23;;;;;;;;;;5136545;27;20437;-68
2022/05/20 02:54:59;;;;;;;46.20;32.20;;;;;;;;;;5136369;27;20446;-68
2022/05/20 02:57:26;;;;;;;45.20;35.83;;;;;;;;;;5136459;27;20440;-68
2022/05/20 03:05:24;;;;;;;55.57;34.07;;;;;;;;;;5136500;27;20746;-68
2022/05/20 03:07:52;;;;;;;46.03;33.93;;;;;;;;;;5136604;27;20477;-68
2022/05/20 03:10:19;;;;;;;52.27;37.13;;;;;;;;;;5135749;27;20934;-68
2022/05/20 03:12:46;;;;;;;49.33;35.03;;;;;;;;;;5136377;27;20450;-68
2022/05/20 03:15:17;;;;;;;50.37;35.40;;;;;;;;;;5135726;27;20473;-68
2022/05/20 03:17:45;;;;;;;44.30;32.73;;;;;;;;;;5136460;27;20926;-67
2022/05/20 03:20:13;;;;;;;44.47;34.70;;;;;;;;;;5135578;27;20444;-68
2022/05/20 03:22:40;;;;;;;52.10;36.10;;;;;;;;;;5135574;27;20470;-67
2022/05/20 03:25:08;;;;;;;48.07;34.77;;;;;;;;;;5135801;27;20790;-69
2022/05/20 03:27:35;;;;;;;49.37;36.00;;;;;;;;;;5135483;27;20472;-68
2022/05/20 03:30:02;;;;;;;54.03;35.70;;;;;;;;;;5135669;27;20528;-68
2022/05/20 03:32:30;;;;;;;46.73;35.17;;;;;;;;;;5135797;27;20493;-70
2022/05/20 03:34:58;;;;;;;59.10;37.17;;;;;;;;;;5135302;27;20445;-69
2022/05/20 03:37:25;;;;;;;52.63;37.27;;;;;;;;;;5135626;27;20448;-69
2022/05/20 03:39:52;;;;;;;50.87;37.40;;;;;;;;;;5135228;27;20951;-69
2022/05/20 03:42:20;;;;;;;45.87;36.40;;;;;;;;;;5135072;27;20514;-71
2022/05/20 03:44:47;;;;;;;49.37;37.07;;;;;;;;;;5135610;27;20424;-70
2022/05/20 03:47:14;;;;;;;51.30;36.43;;;;;;;;;;5135397;27;20501;-72
2022/05/20 03:49:43;;;;;;;48.67;34.87;;;;;;;;;;5135051;27;20960;-69
2022/05/20 03:52:11;;;;;;;43.50;33.60;;;;;;;;;;5135055;27;20449;-69
2022/05/20 03:54:38;;;;;;;40.13;31.17;;;;;;;;;;5135239;27;20438;-69
2022/05/20 03:57:06;;;;;;;43.87;33.13;;;;;;;;;;5135308;27;20443;-69
2022/05/20 03:59:36;;;;;;;45.33;31.83;;;;;;;;;;5134418;27;20457;-69
2022/05/20 04:02:05;;;;;;;38.53;30.93;;;;;;;;;;5134829;27;20442;-69
2022/05/20 04:04:34;;;;;;;41.60;32.07;;;;;;;;;;5134391;27;20446;-69
2022/05/20 04:07:03;;;;;;;37.27;29.50;;;;;;;;;;5134388;27;20478;-69
2022/05/20 04:09:30;;;;;;;36.00;27.77;;;;;;;;;;5134229;27;20950;-69
2022/05/20 04:11:59;;;;;;;38.00;27.23;;;;;;;;;;5134329;27;20449;-70
2022/05/20 04:14:27;;;;;;;29.67;25.97;;;;;;;;;;5134067;27;20449;-69
2022/05/20 04:16:57;;;;;;;35.00;26.30;;;;;;;;;;5134501;27;20432;-69
2022/05/20 04:19:24;;;;;;;29.30;24.17;;;;;;;;;;5134322;27;20492;-70
2022/05/20 04:21:52;;;;;;;31.10;24.93;;;;;;;;;;5135001;27;20439;-69
2022/05/20 04:24:21;;;;;;;28.87;22.83;;;;;;;;;;5134520;27;20442;-70
2022/05/20 04:26:49;;;;;;;27.80;22.07;;;;;;;;;;5134364;27;20485;-69
2022/05/20 04:29:16;;;;;;;33.17;25.17;;;;;;;;;;5134621;27;20863;-69
2022/05/20 04:31:45;;;;;;;41.37;28.97;;;;;;;;;;5134688;27;20807;-70
2022/05/20 04:34:13;;;;;;;38.30;28.20;;;;;;;;;;5134431;27;20435;-69
2022/05/20 04:36:40;;;;;;;34.87;27.97;;;;;;;;;;5134572;27;20552;-70
2022/05/20 04:39:07;;;;;;;41.00;29.97;;;;;;;;;;5134374;28;20805;-69
2022/05/20 04:47:08;;;;;;;29.10;25.53;;;;;;;;;;5134371;28;20581;-70
2022/05/20 04:49:39;;;;;;;40.90;25.93;;;;;;;;;;5134755;28;20439;-69
2022/05/20 04:52:06;;;;;;;37.83;27.53;;;;;;;;;;5134265;28;20432;-70
2022/05/20 04:54:52;;;;;;;34.07;25.57;;;;;;;;;;5134187;28;20446;-70
2022/05/20 04:57:22;;;;;;;34.70;26.30;;;;;;;;;;5134179;28;20521;-70
2022/05/20 04:59:51;;;;;;;32.77;24.70;;;;;;;;;;5134377;28;20468;-70
2022/05/20 05:02:18;;;;;;;35.43;25.30;;;;;;;;;;5134143;28;20438;-69
2022/05/20 05:04:45;;;;;;;30.87;24.23;;;;;;;;;;5133781;28;20439;-70
2022/05/20 05:07:13;;;;;;;29.43;21.67;;;;;;;;;;5133781;28;20482;-70
2022/05/20 05:09:40;;;;;;;27.90;21.50;;;;;;;;;;5134619;28;20464;-69
2022/05/20 05:12:08;;;;;;;24.97;20.00;;;;;;;;;;5134182;28;20477;-69
2022/05/20 05:14:40;;;;;;;22.17;19.73;;;;;;;;;;5134544;28;20480;-71
2022/05/20 05:17:09;;;;;;;25.10;20.07;;;;;;;;;;5134208;28;20449;-74
2022/05/20 05:19:37;;;;;;;22.00;19.60;;;;;;;;;;5134291;28;20935;-68
2022/05/20 05:22:04;;;;;;;21.73;18.97;;;;;;;;;;5134237;28;20442;-68
2022/05/20 05:24:32;;;;;;;23.50;18.30;;;;;;;;;;5134281;27;20447;-68
2022/05/20 05:26:59;;;;;;;22.93;18.50;;;;;;;;;;5137894;27;20442;-68
2022/05/20 05:29:26;;;;;;;23.87;19.03;;;;;;;;;;5138270;27;20491;-69
2022/05/20 05:31:55;;;;;;;24.80;18.60;;;;;;;;;;5138188;27;20438;-68
2022/05/20 05:34:22;;;;;;;18.27;16.37;;;;;;;;;;5138090;27;20444;-68
2022/05/20 05:36:49;;;;;;;19.40;17.30;;;;;;;;;;5137643;27;20450;-68
2022/05/20 05:39:16;;;;;;;19.73;17.73;;;;;;;;;;5138054;27;20454;-68
2022/05/20 05:41:45;;;;;;;24.27;17.30;;;;;;;;;;5137414;27;20449;-69
2022/05/20 05:44:12;;;;;;;20.17;18.07;;;;;;;;;;5137448;27;20507;-68
2022/05/20 05:46:40;;;;;;;18.87;16.93;;;;;;;;;;5137348;27;20446;-68
2022/05/20 05:49:09;;;;;;;23.97;17.67;;;;;;;;;;5137480;27;20472;-68
2022/05/20 05:51:36;;;;;;;21.53;17.50;;;;;;;;;;5137304;27;20477;-68
2022/05/20 05:54:03;;;;;;;21.40;17.80;;;;;;;;;;5137949;27;20474;-68
2022/05/20 05:56:30;;;;;;;21.10;17.30;;;;;;;;;;5137250;27;20440;-68
2022/05/20 05:58:58;;;;;;;19.80;16.77;;;;;;;;;;5137814;27;20795;-68
2022/05/20 06:01:25;;;;;;;21.70;17.83;;;;;;;;;;5137564;27;20440;-68
2022/05/20 06:03:52;;;;;;;18.73;16.73;;;;;;;;;;5137434;27;20439;-68
2022/05/20 06:06:21;;;;;;;21.17;18.13;;;;;;;;;;5137384;27;20541;-68
2022/05/20 06:08:48;;;;;;;17.80;16.03;;;;;;;;;;5137618;27;20474;-68
2022/05/20 06:11:15;;;;;;;19.10;17.07;;;;;;;;;;5137087;27;20442;-68
2022/05/20 06:13:43;;;;;;;19.13;16.23;;;;;;;;;;5136896;27;20927;-70
2022/05/20 06:16:10;;;;;;;23.73;17.47;;;;;;;;;;5137588;27;20450;-68
2022/05/20 06:18:37;;;;;;;18.53;16.57;;;;;;;;;;5137342;27;20770;-68
2022/05/20 06:21:04;;;;;;;20.73;17.90;;;;;;;;;;5137084;27;20442;-68
2022/05/20 06:23:33;;;;;;;25.00;19.90;;;;;;;;;;5136839;27;20531;-68
2022/05/20 06:26:00;;;;;;;22.23;18.13;;;;;;;;;;5137353;27;20437;-68
2022/05/20 06:28:30;;;;;;;19.60;17.60;;;;;;;;;;5136957;27;20466;-68
2022/05/20 06:30:57;;;;;;;18.40;16.43;;;;;;;;;;5136939;27;20448;-69
2022/05/20 06:33:24;;;;;;;21.80;17.77;;;;;;;;;;5137115;27;20449;-69
2022/05/20 06:41:23;;;;;;;19.20;16.77;;;;;;;;;;5136845;27;20398;-68
2022/05/20 06:43:50;;;;;;;18.27;16.33;;;;;;;;;;5137069;27;20476;-68
2022/05/20 06:46:17;;;;;;;21.43;16.33;;;;;;;;;;5136601;27;20444;-69
2022/05/20 06:48:47;;;;;;;21.80;15.80;;;;;;;;;;5136655;27;20810;-68
2022/05/20 06:51:17;;;;;;;20.30;16.97;;;;;;;;;;5136821;27;20433;-68
2022/05/20 06:53:45;;;;;;;18.13;15.90;;;;;;;;;;5136518;27;20478;-68
2022/05/20 06:56:13;;;;;;;20.10;14.50;;;;;;;;;;5136149;27;20450;-68
2022/05/20 06:58:40;;;;;;;18.10;16.20;;;;;;;;;;5136929;27;20448;-68
2022/05/20 07:01:07;;;;;;;19.17;15.23;;;;;;;;;;5136083;27;20434;-67
2022/05/20 07:03:35;;;;;;;18.63;14.70;;;;;;;;;;5136333;27;20534;-69
2022/05/20 07:06:03;;;;;;;18.20;16.20;;;;;;;;;;5136310;27;20521;-68
2022/05/20 07:08:30;;;;;;;16.10;14.40;;;;;;;;;;5135828;27;20581;-68
2022/05/20 07:11:01;;;;;;;22.73;17.67;;;;;;;;;;5135928;27;20962;-68
2022/05/20 07:13:29;;;;;;;15.30;13.80;;;;;;;;;;5136417;27;20445;-68
2022/05/20 07:15:57;;;;;;;20.13;13.83;;;;;;;;;;5136653;27;20483;-68
2022/05/20 07:18:24;;;;;;;15.90;14.23;;;;;;;;;;5135724;27;20919;-68
2022/05/20 07:20:51;;;;;;;16.50;12.87;;;;;;;;;;5136129;27;20440;-68
2022/05/20 07:23:19;;;;;;;15.33;13.57;;;;;;;;;;5135857;27;20441;-68
2022/05/20 07:25:46;;;;;;;14.33;12.90;;;;;;;;;;5135949;27;20518;-68
2022/05/20 07:28:15;;;;;;;17.30;12.60;;;;;;;;;;5135396;27;20469;-68
2022/05/20 07:30:42;;;;;;;16.90;13.63;;;;;;;;;;5135494;27;20453;-68
2022/05/20 07:33:09;;;;;;;15.20;12.50;;;;;;;;;;5135692;27;20447;-69
2022/05/20 07:35:38;;;;;;;15.00;12.20;;;;;;;;;;5135397;27;20441;-68
2022/05/20 07:38:06;;;;;;;15.00;11.67;;;;;;;;;;5135324;27;20491;-68
2022/05/20 07:40:33;;;;;;;13.70;12.40;;;;;;;;;;5135601;27;20438;-68
2022/05/20 07:43:00;;;;;;;12.90;11.33;;;;;;;;;;5135533;27;20478;-68
2022/05/20 07:45:29;;;;;;;11.80;10.60;;;;;;;;;;5135169;27;21023;-68
2022/05/20 07:47:56;;;;;;;16.80;12.90;;;;;;;;;;5134488;27;20531;-68
2022/05/20 07:50:23;;;;;;;11.50;10.50;;;;;;;;;;5134993;27;20444;-68
2022/05/20 07:55:38;;;;;;;12.10;10.57;;;;;;;;;;5135135;27;20411;-68
2022/05/20 07:58:08;;;;;;;13.17;10.77;;;;;;;;;;5135629;27;20438;-69
2022/05/20 08:00:36;;;;;;;13.23;10.93;;;;;;;;;;5134930;27;20450;-68
2022/05/20 08:03:04;;;;;;;10.93;9.83;;;;;;;;;;5135156;27;20466;-68
2022/05/20 08:05:31;;;;;;;14.40;10.80;;;;;;;;;;5135197;27;20440;-68
2022/05/20 08:08:00;;;;;;;15.07;10.80;;;;;;;;;;5134195;27;20527;-68
2022/05/20 08:10:28;;;;;;;11.37;9.50;;;;;;;;;;5134714;27;20900;-68
2022/05/20 08:12:56;;;;;;;12.80;9.90;;;;;;;;;;5134979;27;20490;-68
2022/05/20 08:15:23;;;;;;;10.27;9.23;;;;;;;;;;5134983;27;20438;-68
2022/05/20 08:17:51;;;;;;;14.30;9.00;;;;;;;;;;5134896;27;20439;-68
2022/05/20 08:20:22;;;;;;;10.60;9.60;;;;;;;;;;5134610;27;20924;-68
2022/05/20 08:22:49;;;;;;;10.80;9.63;;;;;;;;;;5134601;27;20430;-68
2022/05/20 08:25:17;;;;;;;15.13;10.23;;;;;;;;;;5134897;27;20444;-68
2022/05/20 08:27:44;;;;;;;15.37;10.43;;;;;;;;;;5134420;27;20443;-68
2022/05/20 08:30:13;;;;;;;12.33;11.00;;;;;;;;;;5134363;27;20484;-68
2022/05/20 08:32:41;;;;;;;12.73;11.10;;;;;;;;;;5134368;27;20525;-68
2022/05/20 08:35:10;;;;;;;14.67;12.20;;;;;;;;;;5134424;27;20442;-68
2022/05/20 08:37:39;;;;;;;19.43;14.60;;;;;;;;;;5134611;27;20521;-68
2022/05/20 08:40:07;;;;;;;18.73;14.63;;;;;;;;;;5134687;27;20434;-68
2022/05/20 08:42:34;;;;;;;18.60;13.93;;;;;;;;;;5134342;27;20466;-68
2022/05/20 08:45:03;;;;;;;15.00;13.50;;;;;;;;;;5134230;27;20454;-68
2022/05/20 08:47:33;;;;;;;13.10;11.73;;;;;;;;;;5134129;28;20440;-68
2022/05/20 08:50:02;;;;;;;14.10;12.13;;;;;;;;;;5134270;28;20462;-68
2022/05/20 08:52:30;;;;;;;12.17;10.87;;;;;;;;;;5134267;28;20442;-68
2022/05/20 08:54:57;;;;;;;15.63;10.53;;;;;;;;;;5134432;28;20438;-68
2022/05/20 08:57:26;;;;;;;14.40;10.57;;;;;;;;;;5134222;28;20444;-68
2022/05/20 08:59:54;;;;;;;10.13;9.23;;;;;;;;;;5136229;27;20949;-69
2022/05/20 09:02:21;;;;;;;9.97;8.67;;;;;;;;;;5138905;27;20478;-67
2022/05/20 09:04:48;;;;;;;10.63;9.53;;;;;;;;;;5138628;27;20445;-68
2022/05/20 09:07:18;;;;;;;11.30;10.20;;;;;;;;;;5138651;27;20430;-67
2022/05/20 09:09:47;;;;;;;11.00;9.80;;;;;;;;;;5138081;27;20470;-67
2022/05/20 09:12:25;;;;;;;11.20;10.00;;;;;;;;;;5138228;27;20451;-67
2022/05/20 09:17:44;;;;;;;11.77;10.10;;;;;;;;;;5138561;27;20768;-67
2022/05/20 09:20:14;;;;;;;10.60;7.77;;;;;;;;;;5138341;27;20452;-67
2022/05/20 09:22:42;;;;;;;6.77;6.10;;;;;;;;;;5138670;27;20431;-67
2022/05/20 09:25:20;;;;;;;8.43;7.57;;;;;;;;;;5138218;27;20438;-67
2022/05/20 09:27:50;;;;;;;8.23;6.87;;;;;;;;;;5138478;27;20824;-68
2022/05/20 09:30:23;;;;;;;10.60;9.30;;;;;;;;;;5137819;27;20477;-67
2022/05/20 09:32:55;;;;;;;17.07;8.77;;;;;;;;;;5138182;27;20464;-69
2022/05/20 09:35:24;;;;;;;10.40;8.33;;;;;;;;;;5137735;27;20465;-69
2022/05/20 09:37:53;;;;;;;9.13;8.23;;;;;;;;;;5138029;27;20440;-69
2022/05/20 09:40:23;;;;;;;11.33;9.80;;;;;;;;;;5137959;27;20454;-69
2022/05/20 09:43:01;;;;;;;12.17;10.93;;;;;;;;;;5138255;27;20488;-69
2022/05/20 09:45:28;;;;;;;12.17;10.13;;;;;;;;;;5137910;27;20461;-69
2022/05/20 09:47:56;;;;;;;13.00;11.40;;;;;;;;;;5137455;27;20536;-69
2022/05/20 09:50:29;;;;;;;12.23;10.77;;;;;;;;;;5137633;27;20475;-69
2022/05/20 09:52:58;;;;;;;14.77;11.00;;;;;;;;;;5138058;27;20511;-69
2022/05/20 09:55:29;;;;;;;12.63;9.83;;;;;;;;;;5137681;27;20939;-69
2022/05/20 09:57:58;;;;;;;14.67;10.20;;;;;;;;;;5138542;27;20433;-69
2022/05/20 10:00:27;;;;;;;9.40;8.50;;;;;;;;;;5137209;27;20508;-69
2022/05/20 10:02:57;;;;;;;12.80;9.53;;;;;;;;;;5137866;27;20440;-69
2022/05/20 10:05:28;;;;;;;12.20;9.70;;;;;;;;;;5137645;27;20425;-69
2022/05/20 10:07:59;;;;;;;12.77;9.87;;;;;;;;;;5137457;27;20799;-69
2022/05/20 10:10:46;;;;;;;12.00;10.80;;;;;;;;;;5136513;27;20522;-69
2022/05/20 10:13:20;;;;;;;17.53;11.27;;;;;;;;;;5137854;27;20449;-69
2022/05/20 10:15:49;;;;;;;12.23;10.03;;;;;;;;;;5137698;27;20422;-69
2022/05/20 10:18:20;;;;;;;13.93;12.53;;;;;;;;;;5137330;27;20436;-69
2022/05/20 10:20:52;;;;;;;14.03;11.43;;;;;;;;;;5137270;27;20433;-69
2022/05/20 10:23:22;;;;;;;10.63;9.43;;;;;;;;;;5136915;27;20431;-67
2022/05/20 10:25:54;;;;;;;14.33;10.80;;;;;;;;;;5137165;27;20425;-66
2022/05/20 10:34:02;;;;;;;11.57;9.97;;;;;;;;;;5136790;27;20421;-68
2022/05/20 10:36:34;;;;;;;11.97;10.60;;;;;;;;;;5136687;27;20445;-68
2022/05/20 10:39:07;;;;;;;13.70;10.03;;;;;;;;;;5136602;27;20483;-68
2022/05/20 10:41:46;;;;;;;11.97;10.77;;;;;;;;;;5136535;27;20444;-68
2022/05/20 10:50:00;;;;;;;13.37;11.97;;;;;;;;;;5136335;27;20463;-67
2022/05/20 10:52:32;;;;;;;14.37;12.90;;;;;;;;;;5136690;27;20524;-68
2022/05/20 10:55:12;;;;;;;14.63;10.93;;;;;;;;;;5136847;27;20500;-68
2022/05/20 10:57:57;;;;;;;13.80;12.50;;;;;;;;;;5136798;27;20437;-69
2022/05/20 11:00:31;;;;;;;19.70;12.90;;;;;;;;;;5136264;27;20450;-70
2022/05/20 11:03:14;;;;;;;14.83;12.93;;;;;;;;;;5136091;27;20425;-68
2022/05/20 11:06:01;;;;;;;14.27;12.77;;;;;;;;;;5135965;27;20438;-68
2022/05/20 11:08:33;;;;;;;14.50;13.07;;;;;;;;;;5136656;27;20438;-69
2022/05/20 11:11:08;;;;;;;16.73;13.70;;;;;;;;;;5136060;27;20488;-67
2022/05/20 11:13:41;;;;;;;19.43;15.13;;;;;;;;;;5136287;27;20462;-67
2022/05/20 11:16:20;;;;;;;17.40;13.93;;;;;;;;;;5136176;27;20773;-68
2022/05/20 11:19:03;;;;;;;18.23;14.03;;;;;;;;;;5136061;27;20513;-68
2022/05/20 11:21:40;;;;;;;21.83;13.77;;;;;;;;;;5136029;27;20426;-68
2022/05/20 11:24:13;;;;;;;17.80;15.50;;;;;;;;;;5134995;27;20506;-68
2022/05/20 11:26:55;;;;;;;17.20;15.03;;;;;;;;;;5135842;27;20440;-68
2022/05/20 11:29:32;;;;;;;20.07;16.27;;;;;;;;;;5136329;27;20462;-68
2022/05/20 11:32:03;;;;;;;16.87;15.10;;;;;;;;;;5135478;27;20977;-69
2022/05/20 11:34:44;;;;;;;18.90;16.60;;;;;;;;;;5135812;27;20513;-68
2022/05/20 11:37:20;;;;;;;20.13;17.30;;;;;;;;;;5135371;27;20930;-68
2022/05/20 11:40:03;;;;;;;22.87;16.93;;;;;;;;;;5135567;27;20930;-68
2022/05/20 11:42:37;;;;;;;18.13;16.23;;;;;;;;;;5133423;27;20489;-69
2022/05/20 11:45:15;;;;;;;18.30;16.53;;;;;;;;;;5135592;27;20450;-69
2022/05/20 11:48:01;;;;;;;22.13;16.33;;;;;;;;;;5135528;27;20430;-68
2022/05/20 11:50:43;;;;;;;19.80;17.37;;;;;;;;;;5135367;27;20462;-67
2022/05/20 11:53:12;;;;;;;21.80;19.60;;;;;;;;;;5135289;27;20791;-68
2022/05/20 11:55:42;;;;;;;19.70;16.47;;;;;;;;;;5134777;27;20459;-68
2022/05/20 11:58:14;;;;;;;17.53;15.83;;;;;;;;;;5134842;27;20426;-68
2022/05/20 12:00:43;;;;;;;25.27;19.10;;;;;;;;;;5135778;27;20434;-68
2022/05/20 12:03:12;;;;;;;20.70;16.90;;;;;;;;;;5135548;27;20498;-68
2022/05/20 12:05:43;;;;;;;20.70;18.60;;;;;;;;;;5135554;27;20491;-68
2022/05/20 12:08:30;;;;;;;23.13;18.30;;;;;;;;;;5135303;27;20466;-68
2022/05/20 12:10:57;;;;;;;17.13;15.40;;;;;;;;;;5134833;27;20473;-68
2022/05/20 12:13:25;;;;;;;22.47;19.63;;;;;;;;;;5134943;27;20544;-72
2022/05/20 12:16:11;;;;;;;25.60;20.63;;;;;;;;;;5135338;27;20846;-74
2022/05/20 12:24:35;;;;;;;27.23;24.00;;;;;;;;;;5134957;27;20395;-70
2022/05/20 12:27:02;;;;;;;27.67;24.53;;;;;;;;;;5134772;27;20430;-73
2022/05/20 12:29:47;;;;;;;26.23;23.43;;;;;;;;;;5134814;27;20475;-72
2022/05/20 12:32:32;;;;;;;28.67;24.70;;;;;;;;;;5134390;27;20992;-74
2022/05/20 12:35:10;;;;;;;30.63;27.50;;;;;;;;;;5134264;27;21016;-74
2022/05/20 12:37:58;;;;;;;24.97;22.27;;;;;;;;;;5134695;27;20519;-75
2022/05/20 12:40:46;;;;;;;19.90;17.97;;;;;;;;;;5134392;27;20948;-75
2022/05/20 12:43:14;;;;;;;21.87;18.60;;;;;;;;;;5127362;27;20972;-75
2022/05/20 12:45:47;;;;;;;26.63;21.03;;;;;;;;;;5133634;27;21002;-74
2022/05/20 12:48:15;;;;;;;22.27;19.80;;;;;;;;;;5133521;27;20429;-74
2022/05/20 12:50:42;;;;;;;22.33;20.17;;;;;;;;;;5133996;28;20833;-76
2022/05/20 12:53:12;;;;;;;22.17;19.80;;;;;;;;;;5133853;28;20441;-76
2022/05/20 12:55:40;;;;;;;32.43;28.10;;;;;;;;;;5134174;28;20426;-75
2022/05/20 12:58:09;;;;;;;21.80;18.80;;;;;;;;;;5133884;28;20451;-76
2022/05/20 13:00:40;;;;;;;28.07;23.93;;;;;;;;;;5133751;28;20928;-76
2022/05/20 13:03:09;;;;;;;25.30;20.30;;;;;;;;;;5134419;28;20457;-74
2022/05/20 13:05:38;;;;;;;20.37;18.27;;;;;;;;;;5134087;28;20486;-74
2022/05/20 13:08:16;;;;;;;21.60;19.40;;;;;;;;;;5134291;28;20493;-75
2022/05/20 13:10:44;;;;;;;18.97;17.00;;;;;;;;;;5134697;27;20475;-75
2022/05/20 13:13:13;;;;;;;23.80;18.63;;;;;;;;;;5113462;28;20455;-74
2022/05/20 13:15:41;;;;;;;20.80;18.80;;;;;;;;;;5112801;28;20444;-74
2022/05/20 13:18:19;;;;;;;29.27;25.17;;;;;;;;;;5113154;28;20442;-76
2022/05/20 13:20:48;;;;;;;22.80;20.53;;;;;;;;;;5113592;28;20435;-75
2022/05/20 13:23:19;;;;;;;19.53;17.60;;;;;;;;;;5113193;28;20435;-74
2022/05/20 13:25:47;;;;;;;21.53;19.23;;;;;;;;;;5112772;28;20486;-73
2022/05/20 13:28:23;;;;;;;20.63;18.43;;;;;;;;;;5112720;28;20451;-74
2022/05/20 13:30:50;;;;;;;23.77;21.20;;;;;;;;;;5114492;28;20470;-75
2022/05/20 13:33:17;;;;;;;23.37;20.83;;;;;;;;;;5113513;28;20439;-74
2022/05/20 13:35:47;;;;;;;23.50;21.07;;;;;;;;;;5113310;28;20951;-74
2022/05/20 13:38:14;;;;;;;23.03;20.50;;;;;;;;;;5113453;28;20832;-76
2022/05/20 13:40:42;;;;;;;24.40;20.47;;;;;;;;;;5113784;28;20538;-76
2022/05/20 13:43:12;;;;;;;24.33;21.73;;;;;;;;;;5133230;28;20473;-74
2022/05/20 13:51:14;;;;;;;22.53;20.10;;;;;;;;;;5137106;27;20956;-74
2022/05/20 13:53:42;;;;;;;24.20;21.70;;;;;;;;;;5137575;27;20447;-74
2022/05/20 13:56:10;;;;;;;25.10;21.87;;;;;;;;;;5137098;27;20441;-75
2022/05/20 13:58:41;;;;;;;25.23;22.57;;;;;;;;;;5136893;27;20434;-73
2022/05/20 14:01:10;;;;;;;27.70;24.20;;;;;;;;;;5137974;27;20426;-74
2022/05/20 14:03:41;;;;;;;25.47;22.87;;;;;;;;;;5137121;27;20441;-74
2022/05/20 14:06:12;;;;;;;33.70;26.17;;;;;;;;;;5136628;27;20426;-73
2022/05/20 14:08:40;;;;;;;30.50;27.20;;;;;;;;;;5137459;27;20443;-74
2022/05/20 14:11:11;;;;;;;37.03;30.07;;;;;;;;;;5137340;27;20504;-73
2022/05/20 14:13:40;;;;;;;37.17;28.67;;;;;;;;;;5137301;27;20914;-73
2022/05/20 14:16:10;;;;;;;37.50;29.73;;;;;;;;;;5137889;27;20431;-74
2022/05/20 14:18:39;;;;;;;36.53;28.97;;;;;;;;;;5136621;27;20452;-74
2022/05/20 14:21:07;;;;;;;42.70;31.67;;;;;;;;;;5137317;27;20549;-73
2022/05/20 14:23:37;;;;;;;41.00;33.83;;;;;;;;;;5136662;27;20527;-73
2022/05/20 14:26:08;;;;;;;47.60;36.00;;;;;;;;;;5136492;27;20536;-73
2022/05/20 14:28:53;;;;;;;62.40;36.60;;;;;;;;;;5136450;27;20424;-69
2022/05/20 14:31:25;;;;;;;47.43;36.47;;;;;;;;;;5136833;27;20474;-70
2022/05/20 14:33:53;;;;;;;59.27;41.00;;;;;;;;;;5136730;27;20429;-70
2022/05/20 14:36:22;;;;;;;59.07;43.17;;;;;;;;;;5136484;27;20535;-71
2022/05/20 14:38:50;;;;;;;51.60;42.50;;;;;;;;;;5136599;27;20450;-72
2022/05/20 14:41:19;;;;;;;59.53;43.17;;;;;;;;;;5136588;27;20468;-72
2022/05/20 14:43:51;;;;;;;58.50;42.00;;;;;;;;;;5135337;27;20476;-71
2022/05/20 14:49:06;;;;;;;60.40;45.17;;;;;;;;;;5135103;27;20839;-72
2022/05/20 14:51:34;;;;;;;69.07;45.17;;;;;;;;;;5136211;27;20551;-71
2022/05/20 14:54:03;;;;;;;56.03;42.67;;;;;;;;;;5136322;27;20471;-71
2022/05/20 14:56:39;;;;;;;59.00;44.50;;;;;;;;;;5135887;27;21005;-72
2022/05/20 14:59:07;;;;;;;54.17;43.90;;;;;;;;;;5136123;27;20433;-71
2022/05/20 15:01:38;;;;;;;61.73;42.80;;;;;;;;;;5136241;27;20447;-71
2022/05/20 15:04:06;;;;;;;56.97;44.80;;;;;;;;;;5135792;27;20503;-70
2022/05/20 15:06:35;;;;;;;63.53;45.47;;;;;;;;;;5136063;27;20810;-71
2022/05/20 15:09:02;;;;;;;53.30;43.63;;;;;;;;;;5135779;27;20466;-71
2022/05/20 15:11:30;;;;;;;59.13;43.90;;;;;;;;;;5136269;27;20566;-70
2022/05/20 15:13:58;;;;;;;61.37;45.00;;;;;;;;;;5135476;27;20464;-70
2022/05/20 15:16:25;;;;;;;57.60;41.33;;;;;;;;;;5135745;27;20524;-70
2022/05/20 15:18:54;;;;;;;57.87;42.80;;;;;;;;;;5135751;27;20807;-70
2022/05/20 15:21:23;;;;;;;61.50;42.97;;;;;;;;;;5135572;27;20445;-71